sensor_id;sensor_type;location;lat;lon;timestamp;P1;durP1;ratioP1;P2;durP2;ratioP2
63398;SDS011;49533;-34.520;150.798;2023-04-24T00:01:44;1.85;;;1.45;;
63398;SDS011;49533;-34.520;150.798;2023-04-24T00:04:11;4.60;;;1.67;;
63398;SDS011;49533;-34.520;150.798;2023-04-24T00:06:39;4.88;;;1.70;;
63398;SDS011;49533;-34.520;150.798;2023-04-24T00:09:09;3.28;;;1.77;;
63398;SDS011;49533;-34.520;150.798;2023-04-24T00:11:36;2.55;;;1.70;;
63398;SDS011;49533;-34.520;150.798;2023-04-24T00:14:03;2.80;;;1.60;;
63398;SDS011;49533;-34.520;150.798;2023-04-24T00:16:31;2.97;;;1.58;;
63398;SDS011;49533;-34.520;150.798;2023-04-24T00:18:58;2.95;;;1.55;;
63398;SDS011;49533;-34.520;150.798;2023-04-24T00:21:26;3.78;;;1.60;;
63398;SDS011;49533;-34.520;150.798;2023-04-24T00:23:53;3.55;;;1.88;;
63398;SDS011;49533;-34.520;150.798;2023-04-24T00:26:20;3.75;;;1.70;;
63398;SDS011;49533;-34.520;150.798;2023-04-24T00:28:48;4.25;;;1.50;;
63398;SDS011;49533;-34.520;150.798;2023-04-24T00:31:15;4.00;;;1.60;;
63398;SDS011;49533;-34.520;150.798;2023-04-24T00:33:42;2.22;;;1.40;;
63398;SDS011;49533;-34.520;150.798;2023-04-24T00:36:10;3.55;;;1.75;;
63398;SDS011;49533;-34.520;150.798;2023-04-24T00:38:37;1.80;;;1.60;;
63398;SDS011;49533;-34.520;150.798;2023-04-24T00:41:04;2.92;;;1.85;;
63398;SDS011;49533;-34.520;150.798;2023-04-24T00:43:32;4.38;;;1.88;;
63398;SDS011;49533;-34.520;150.798;2023-04-24T00:46:00;4.80;;;1.90;;
63398;SDS011;49533;-34.520;150.798;2023-04-24T00:48:28;2.60;;;1.67;;
63398;SDS011;49533;-34.520;150.798;2023-04-24T00:50:55;2.25;;;1.13;;
63398;SDS011;49533;-34.520;150.798;2023-04-24T00:53:24;2.13;;;1.50;;
63398;SDS011;49533;-34.520;150.798;2023-04-24T00:55:51;3.22;;;1.50;;
63398;SDS011;49533;-34.520;150.798;2023-04-24T00:58:18;5.38;;;2.08;;
63398;SDS011;49533;-34.520;150.798;2023-04-24T01:00:45;2.85;;;1.50;;
63398;SDS011;49533;-34.520;150.798;2023-04-24T01:03:15;3.17;;;1.48;;
63398;SDS011;49533;-34.520;150.798;2023-04-24T01:05:43;4.72;;;1.70;;
63398;SDS011;49533;-34.520;150.798;2023-04-24T01:08:11;4.00;;;1.77;;
63398;SDS011;49533;-34.520;150.798;2023-04-24T01:10:38;4.05;;;1.60;;
63398;SDS011;49533;-34.520;150.798;2023-04-24T01:13:08;4.45;;;1.90;;
63398;SDS011;49533;-34.520;150.798;2023-04-24T01:15:35;3.05;;;1.38;;
63398;SDS011;49533;-34.520;150.798;2023-04-24T01:18:02;3.95;;;2.03;;
63398;SDS011;49533;-34.520;150.798;2023-04-24T01:20:31;5.70;;;2.15;;
63398;SDS011;49533;-34.520;150.798;2023-04-24T01:22:59;8.30;;;2.22;;
63398;SDS011;49533;-34.520;150.798;2023-04-24T01:25:26;6.57;;;2.05;;
63398;SDS011;49533;-34.520;150.798;2023-04-24T01:27:55;5.00;;;1.98;;
63398;SDS011;49533;-34.520;150.798;2023-04-24T01:30:22;4.70;;;1.90;;
63398;SDS011;49533;-34.520;150.798;2023-04-24T01:32:50;4.30;;;1.90;;
63398;SDS011;49533;-34.520;150.798;2023-04-24T01:35:18;3.67;;;1.77;;
63398;SDS011;49533;-34.520;150.798;2023-04-24T01:37:46;3.15;;;1.40;;
63398;SDS011;49533;-34.520;150.798;2023-04-24T01:40:13;2.53;;;1.27;;
63398;SDS011;49533;-34.520;150.798;2023-04-24T01:42:41;3.85;;;1.90;;
63398;SDS011;49533;-34.520;150.798;2023-04-24T01:45:10;4.97;;;1.75;;
63398;SDS011;49533;-34.520;150.798;2023-04-24T01:47:38;2.63;;;1.63;;
63398;SDS011;49533;-34.520;150.798;2023-04-24T01:50:06;3.35;;;1.90;;
63398;SDS011;49533;-34.520;150.798;2023-04-24T01:52:35;3.47;;;1.63;;
63398;SDS011;49533;-34.520;150.798;2023-04-24T01:55:03;5.25;;;1.52;;
63398;SDS011;49533;-34.520;150.798;2023-04-24T01:57:32;3.85;;;2.00;;
63398;SDS011;49533;-34.520;150.798;2023-04-24T01:59:59;2.92;;;1.52;;
63398;SDS011;49533;-34.520;150.798;2023-04-24T02:02:29;4.07;;;1.65;;
63398;SDS011;49533;-34.520;150.798;2023-04-24T02:04:56;3.70;;;1.75;;
63398;SDS011;49533;-34.520;150.798;2023-04-24T02:07:24;4.10;;;1.40;;
63398;SDS011;49533;-34.520;150.798;2023-04-24T02:09:51;3.17;;;1.63;;
63398;SDS011;49533;-34.520;150.798;2023-04-24T02:12:18;5.13;;;1.42;;
63398;SDS011;49533;-34.520;150.798;2023-04-24T02:14:45;4.97;;;1.85;;
63398;SDS011;49533;-34.520;150.798;2023-04-24T02:17:12;4.95;;;1.80;;
63398;SDS011;49533;-34.520;150.798;2023-04-24T02:19:41;5.38;;;1.50;;
63398;SDS011;49533;-34.520;150.798;2023-04-24T02:22:09;3.22;;;1.80;;
63398;SDS011;49533;-34.520;150.798;2023-04-24T02:24:37;2.08;;;1.02;;
63398;SDS011;49533;-34.520;150.798;2023-04-24T02:27:05;5.07;;;1.67;;
63398;SDS011;49533;-34.520;150.798;2023-04-24T02:29:33;4.65;;;1.60;;
63398;SDS011;49533;-34.520;150.798;2023-04-24T02:32:00;5.65;;;1.70;;
63398;SDS011;49533;-34.520;150.798;2023-04-24T02:34:27;2.35;;;1.65;;
63398;SDS011;49533;-34.520;150.798;2023-04-24T02:36:55;3.25;;;1.42;;
63398;SDS011;49533;-34.520;150.798;2023-04-24T02:39:22;1.55;;;0.82;;
63398;SDS011;49533;-34.520;150.798;2023-04-24T02:41:49;6.30;;;1.88;;
63398;SDS011;49533;-34.520;150.798;2023-04-24T02:44:17;3.28;;;1.42;;
63398;SDS011;49533;-34.520;150.798;2023-04-24T02:46:44;4.78;;;1.55;;
63398;SDS011;49533;-34.520;150.798;2023-04-24T02:49:11;3.78;;;1.67;;
63398;SDS011;49533;-34.520;150.798;2023-04-24T02:51:38;4.93;;;1.70;;
63398;SDS011;49533;-34.520;150.798;2023-04-24T02:54:07;8.45;;;2.28;;
63398;SDS011;49533;-34.520;150.798;2023-04-24T02:56:36;7.30;;;1.58;;
63398;SDS011;49533;-34.520;150.798;2023-04-24T02:59:03;9.20;;;2.25;;
63398;SDS011;49533;-34.520;150.798;2023-04-24T03:01:31;5.50;;;2.03;;
63398;SDS011;49533;-34.520;150.798;2023-04-24T03:03:58;7.50;;;2.33;;
63398;SDS011;49533;-34.520;150.798;2023-04-24T03:06:25;4.60;;;1.75;;
63398;SDS011;49533;-34.520;150.798;2023-04-24T03:08:52;3.42;;;2.03;;
63398;SDS011;49533;-34.520;150.798;2023-04-24T03:11:20;7.38;;;1.55;;
63398;SDS011;49533;-34.520;150.798;2023-04-24T03:13:47;6.00;;;1.85;;
63398;SDS011;49533;-34.520;150.798;2023-04-24T03:16:14;7.38;;;2.03;;
63398;SDS011;49533;-34.520;150.798;2023-04-24T03:18:41;5.43;;;1.90;;
63398;SDS011;49533;-34.520;150.798;2023-04-24T03:21:08;9.48;;;2.13;;
63398;SDS011;49533;-34.520;150.798;2023-04-24T03:23:35;4.00;;;1.60;;
63398;SDS011;49533;-34.520;150.798;2023-04-24T03:26:02;5.78;;;1.55;;
63398;SDS011;49533;-34.520;150.798;2023-04-24T03:28:30;7.35;;;2.15;;
63398;SDS011;49533;-34.520;150.798;2023-04-24T03:30:58;4.90;;;1.60;;
63398;SDS011;49533;-34.520;150.798;2023-04-24T03:33:25;5.65;;;2.20;;
63398;SDS011;49533;-34.520;150.798;2023-04-24T03:35:52;5.07;;;1.73;;
63398;SDS011;49533;-34.520;150.798;2023-04-24T03:38:20;5.97;;;1.67;;
63398;SDS011;49533;-34.520;150.798;2023-04-24T03:40:47;3.63;;;1.40;;
63398;SDS011;49533;-34.520;150.798;2023-04-24T03:43:14;3.75;;;1.73;;
63398;SDS011;49533;-34.520;150.798;2023-04-24T03:45:41;6.32;;;1.85;;
63398;SDS011;49533;-34.520;150.798;2023-04-24T03:48:08;3.92;;;1.20;;
63398;SDS011;49533;-34.520;150.798;2023-04-24T03:50:35;7.35;;;2.00;;
63398;SDS011;49533;-34.520;150.798;2023-04-24T03:53:02;6.22;;;1.70;;
63398;SDS011;49533;-34.520;150.798;2023-04-24T03:55:30;5.78;;;1.50;;
63398;SDS011;49533;-34.520;150.798;2023-04-24T03:57:57;3.58;;;1.27;;
63398;SDS011;49533;-34.520;150.798;2023-04-24T04:00:25;6.35;;;1.85;;
63398;SDS011;49533;-34.520;150.798;2023-04-24T04:02:52;11.50;;;2.35;;
63398;SDS011;49533;-34.520;150.798;2023-04-24T04:05:20;6.72;;;2.25;;
63398;SDS011;49533;-34.520;150.798;2023-04-24T04:07:47;3.90;;;1.73;;
63398;SDS011;49533;-34.520;150.798;2023-04-24T04:10:14;4.28;;;1.45;;
63398;SDS011;49533;-34.520;150.798;2023-04-24T04:12:42;4.38;;;1.50;;
63398;SDS011;49533;-34.520;150.798;2023-04-24T04:15:10;2.30;;;1.20;;
63398;SDS011;49533;-34.520;150.798;2023-04-24T04:17:37;10.63;;;2.50;;
63398;SDS011;49533;-34.520;150.798;2023-04-24T04:20:04;4.05;;;1.52;;
63398;SDS011;49533;-34.520;150.798;2023-04-24T04:22:35;2.80;;;1.27;;
63398;SDS011;49533;-34.520;150.798;2023-04-24T04:25:03;2.70;;;0.90;;
63398;SDS011;49533;-34.520;150.798;2023-04-24T04:27:30;3.22;;;1.45;;
63398;SDS011;49533;-34.520;150.798;2023-04-24T04:29:59;5.57;;;1.52;;
63398;SDS011;49533;-34.520;150.798;2023-04-24T04:32:31;4.65;;;1.45;;
63398;SDS011;49533;-34.520;150.798;2023-04-24T04:34:59;3.95;;;1.40;;
63398;SDS011;49533;-34.520;150.798;2023-04-24T04:37:29;3.10;;;1.45;;
63398;SDS011;49533;-34.520;150.798;2023-04-24T04:39:59;4.93;;;1.52;;
63398;SDS011;49533;-34.520;150.798;2023-04-24T04:42:26;3.78;;;1.58;;
63398;SDS011;49533;-34.520;150.798;2023-04-24T04:44:57;2.13;;;1.17;;
63398;SDS011;49533;-34.520;150.798;2023-04-24T04:47:24;2.38;;;1.08;;
63398;SDS011;49533;-34.520;150.798;2023-04-24T04:49:54;2.55;;;1.00;;
63398;SDS011;49533;-34.520;150.798;2023-04-24T04:52:21;4.57;;;1.55;;
63398;SDS011;49533;-34.520;150.798;2023-04-24T04:54:50;3.53;;;1.30;;
63398;SDS011;49533;-34.520;150.798;2023-04-24T04:57:17;5.63;;;1.90;;
63398;SDS011;49533;-34.520;150.798;2023-04-24T04:59:46;3.95;;;1.50;;
63398;SDS011;49533;-34.520;150.798;2023-04-24T05:02:13;3.17;;;1.45;;
63398;SDS011;49533;-34.520;150.798;2023-04-24T05:04:40;3.40;;;1.52;;
63398;SDS011;49533;-34.520;150.798;2023-04-24T05:07:07;5.50;;;1.83;;
63398;SDS011;49533;-34.520;150.798;2023-04-24T05:09:35;4.07;;;1.75;;
63398;SDS011;49533;-34.520;150.798;2023-04-24T05:12:02;3.92;;;1.40;;
63398;SDS011;49533;-34.520;150.798;2023-04-24T05:14:29;4.38;;;1.67;;
63398;SDS011;49533;-34.520;150.798;2023-04-24T05:16:56;3.20;;;1.50;;
63398;SDS011;49533;-34.520;150.798;2023-04-24T05:19:24;4.15;;;1.55;;
63398;SDS011;49533;-34.520;150.798;2023-04-24T05:21:51;3.20;;;1.48;;
63398;SDS011;49533;-34.520;150.798;2023-04-24T05:24:18;4.95;;;1.50;;
63398;SDS011;49533;-34.520;150.798;2023-04-24T05:26:45;3.05;;;1.02;;
63398;SDS011;49533;-34.520;150.798;2023-04-24T05:29:12;2.65;;;1.13;;
63398;SDS011;49533;-34.520;150.798;2023-04-24T05:31:40;1.98;;;1.10;;
63398;SDS011;49533;-34.520;150.798;2023-04-24T05:34:07;3.80;;;1.27;;
63398;SDS011;49533;-34.520;150.798;2023-04-24T05:36:35;3.55;;;1.70;;
63398;SDS011;49533;-34.520;150.798;2023-04-24T05:39:02;6.45;;;1.55;;
63398;SDS011;49533;-34.520;150.798;2023-04-24T05:41:30;4.32;;;1.70;;
63398;SDS011;49533;-34.520;150.798;2023-04-24T05:43:57;6.32;;;1.73;;
63398;SDS011;49533;-34.520;150.798;2023-04-24T05:46:24;7.95;;;2.28;;
63398;SDS011;49533;-34.520;150.798;2023-04-24T05:48:51;12.90;;;2.80;;
63398;SDS011;49533;-34.520;150.798;2023-04-24T05:51:18;7.50;;;2.17;;
63398;SDS011;49533;-34.520;150.798;2023-04-24T05:53:46;6.38;;;2.28;;
63398;SDS011;49533;-34.520;150.798;2023-04-24T05:56:13;6.35;;;2.22;;
63398;SDS011;49533;-34.520;150.798;2023-04-24T05:58:41;10.73;;;2.63;;
63398;SDS011;49533;-34.520;150.798;2023-04-24T06:01:08;6.95;;;2.50;;
63398;SDS011;49533;-34.520;150.798;2023-04-24T06:03:35;7.03;;;1.95;;
63398;SDS011;49533;-34.520;150.798;2023-04-24T06:06:03;8.32;;;2.67;;
63398;SDS011;49533;-34.520;150.798;2023-04-24T06:08:31;7.38;;;2.35;;
63398;SDS011;49533;-34.520;150.798;2023-04-24T06:10:58;8.75;;;2.58;;
63398;SDS011;49533;-34.520;150.798;2023-04-24T06:13:26;6.00;;;2.05;;
63398;SDS011;49533;-34.520;150.798;2023-04-24T06:15:53;6.45;;;2.45;;
63398;SDS011;49533;-34.520;150.798;2023-04-24T06:18:20;9.20;;;2.80;;
63398;SDS011;49533;-34.520;150.798;2023-04-24T06:20:47;11.10;;;2.80;;
63398;SDS011;49533;-34.520;150.798;2023-04-24T06:23:15;9.38;;;2.85;;
63398;SDS011;49533;-34.520;150.798;2023-04-24T06:25:42;9.90;;;2.65;;
63398;SDS011;49533;-34.520;150.798;2023-04-24T06:28:12;11.13;;;3.25;;
63398;SDS011;49533;-34.520;150.798;2023-04-24T06:30:39;8.80;;;2.97;;
63398;SDS011;49533;-34.520;150.798;2023-04-24T06:33:06;18.10;;;2.95;;
63398;SDS011;49533;-34.520;150.798;2023-04-24T06:35:33;7.88;;;2.30;;
63398;SDS011;49533;-34.520;150.798;2023-04-24T06:38:01;8.80;;;3.13;;
63398;SDS011;49533;-34.520;150.798;2023-04-24T06:40:29;8.55;;;2.40;;
63398;SDS011;49533;-34.520;150.798;2023-04-24T06:42:56;7.43;;;2.28;;
63398;SDS011;49533;-34.520;150.798;2023-04-24T06:45:25;6.82;;;2.10;;
63398;SDS011;49533;-34.520;150.798;2023-04-24T06:47:55;7.30;;;2.35;;
63398;SDS011;49533;-34.520;150.798;2023-04-24T06:50:22;6.78;;;2.25;;
63398;SDS011;49533;-34.520;150.798;2023-04-24T06:52:50;6.00;;;1.88;;
63398;SDS011;49533;-34.520;150.798;2023-04-24T06:55:17;6.90;;;2.28;;
63398;SDS011;49533;-34.520;150.798;2023-04-24T06:57:44;6.53;;;2.20;;
63398;SDS011;49533;-34.520;150.798;2023-04-24T07:00:13;6.50;;;2.13;;
63398;SDS011;49533;-34.520;150.798;2023-04-24T07:02:41;7.75;;;2.67;;
63398;SDS011;49533;-34.520;150.798;2023-04-24T07:05:08;5.70;;;2.40;;
63398;SDS011;49533;-34.520;150.798;2023-04-24T07:07:35;6.10;;;2.28;;
63398;SDS011;49533;-34.520;150.798;2023-04-24T07:10:04;5.13;;;2.25;;
63398;SDS011;49533;-34.520;150.798;2023-04-24T07:12:31;7.82;;;2.45;;
63398;SDS011;49533;-34.520;150.798;2023-04-24T07:14:59;5.50;;;2.78;;
63398;SDS011;49533;-34.520;150.798;2023-04-24T07:17:27;4.82;;;1.95;;
63398;SDS011;49533;-34.520;150.798;2023-04-24T07:19:54;6.43;;;2.50;;
63398;SDS011;49533;-34.520;150.798;2023-04-24T07:22:21;5.15;;;2.45;;
63398;SDS011;49533;-34.520;150.798;2023-04-24T07:24:48;9.57;;;2.30;;
63398;SDS011;49533;-34.520;150.798;2023-04-24T07:27:15;5.97;;;2.25;;
63398;SDS011;49533;-34.520;150.798;2023-04-24T07:29:42;8.25;;;2.75;;
63398;SDS011;49533;-34.520;150.798;2023-04-24T07:32:10;6.00;;;2.65;;
63398;SDS011;49533;-34.520;150.798;2023-04-24T07:34:37;6.20;;;2.85;;
63398;SDS011;49533;-34.520;150.798;2023-04-24T07:37:04;7.05;;;2.28;;
63398;SDS011;49533;-34.520;150.798;2023-04-24T07:39:31;7.95;;;2.88;;
63398;SDS011;49533;-34.520;150.798;2023-04-24T07:41:58;8.65;;;2.92;;
63398;SDS011;49533;-34.520;150.798;2023-04-24T07:44:27;6.03;;;2.40;;
63398;SDS011;49533;-34.520;150.798;2023-04-24T07:46:54;7.95;;;2.65;;
63398;SDS011;49533;-34.520;150.798;2023-04-24T07:49:22;8.52;;;3.10;;
63398;SDS011;49533;-34.520;150.798;2023-04-24T07:51:50;6.30;;;2.70;;
63398;SDS011;49533;-34.520;150.798;2023-04-24T07:54:17;8.82;;;3.00;;
63398;SDS011;49533;-34.520;150.798;2023-04-24T07:56:44;9.23;;;2.85;;
63398;SDS011;49533;-34.520;150.798;2023-04-24T07:59:11;5.72;;;2.47;;
63398;SDS011;49533;-34.520;150.798;2023-04-24T08:01:38;8.00;;;3.15;;
63398;SDS011;49533;-34.520;150.798;2023-04-24T08:04:06;6.28;;;2.33;;
63398;SDS011;49533;-34.520;150.798;2023-04-24T08:06:33;11.93;;;3.35;;
63398;SDS011;49533;-34.520;150.798;2023-04-24T08:09:00;5.40;;;2.50;;
63398;SDS011;49533;-34.520;150.798;2023-04-24T08:11:28;9.40;;;2.97;;
63398;SDS011;49533;-34.520;150.798;2023-04-24T08:13:55;6.15;;;2.42;;
63398;SDS011;49533;-34.520;150.798;2023-04-24T08:16:22;8.98;;;2.97;;
63398;SDS011;49533;-34.520;150.798;2023-04-24T08:18:49;8.00;;;2.70;;
63398;SDS011;49533;-34.520;150.798;2023-04-24T08:21:17;7.22;;;2.58;;
63398;SDS011;49533;-34.520;150.798;2023-04-24T08:23:46;8.27;;;2.70;;
63398;SDS011;49533;-34.520;150.798;2023-04-24T08:26:13;8.95;;;2.97;;
63398;SDS011;49533;-34.520;150.798;2023-04-24T08:28:40;9.50;;;2.90;;
63398;SDS011;49533;-34.520;150.798;2023-04-24T08:31:08;7.88;;;3.08;;
63398;SDS011;49533;-34.520;150.798;2023-04-24T08:33:35;9.70;;;2.58;;
63398;SDS011;49533;-34.520;150.798;2023-04-24T08:36:03;10.93;;;3.20;;
63398;SDS011;49533;-34.520;150.798;2023-04-24T08:38:31;6.40;;;2.55;;
63398;SDS011;49533;-34.520;150.798;2023-04-24T08:41:00;4.90;;;2.58;;
63398;SDS011;49533;-34.520;150.798;2023-04-24T08:43:27;7.38;;;2.95;;
63398;SDS011;49533;-34.520;150.798;2023-04-24T08:45:55;7.03;;;2.67;;
63398;SDS011;49533;-34.520;150.798;2023-04-24T08:48:23;6.70;;;2.63;;
63398;SDS011;49533;-34.520;150.798;2023-04-24T08:50:51;8.13;;;2.67;;
63398;SDS011;49533;-34.520;150.798;2023-04-24T08:53:19;10.75;;;2.35;;
63398;SDS011;49533;-34.520;150.798;2023-04-24T08:55:47;7.15;;;2.50;;
63398;SDS011;49533;-34.520;150.798;2023-04-24T08:58:16;8.52;;;3.10;;
63398;SDS011;49533;-34.520;150.798;2023-04-24T09:00:43;6.40;;;2.85;;
63398;SDS011;49533;-34.520;150.798;2023-04-24T09:03:13;6.63;;;2.47;;
63398;SDS011;49533;-34.520;150.798;2023-04-24T09:05:46;8.02;;;3.17;;
63398;SDS011;49533;-34.520;150.798;2023-04-24T09:08:15;7.35;;;2.83;;
63398;SDS011;49533;-34.520;150.798;2023-04-24T09:10:44;7.07;;;3.05;;
63398;SDS011;49533;-34.520;150.798;2023-04-24T09:13:11;6.63;;;2.53;;
63398;SDS011;49533;-34.520;150.798;2023-04-24T09:15:39;6.38;;;2.90;;
63398;SDS011;49533;-34.520;150.798;2023-04-24T09:18:07;6.80;;;3.05;;
63398;SDS011;49533;-34.520;150.798;2023-04-24T09:20:35;5.07;;;2.50;;
63398;SDS011;49533;-34.520;150.798;2023-04-24T09:23:25;7.85;;;2.70;;
63398;SDS011;49533;-34.520;150.798;2023-04-24T09:25:55;7.07;;;2.88;;
63398;SDS011;49533;-34.520;150.798;2023-04-24T09:28:26;5.90;;;2.90;;
63398;SDS011;49533;-34.520;150.798;2023-04-24T09:31:04;7.45;;;3.00;;
63398;SDS011;49533;-34.520;150.798;2023-04-24T09:33:32;9.18;;;2.70;;
63398;SDS011;49533;-34.520;150.798;2023-04-24T09:36:00;8.13;;;3.35;;
63398;SDS011;49533;-34.520;150.798;2023-04-24T09:38:31;7.45;;;3.10;;
63398;SDS011;49533;-34.520;150.798;2023-04-24T09:41:02;8.43;;;2.80;;
63398;SDS011;49533;-34.520;150.798;2023-04-24T09:43:31;7.90;;;3.08;;
63398;SDS011;49533;-34.520;150.798;2023-04-24T09:46:00;5.85;;;3.00;;
63398;SDS011;49533;-34.520;150.798;2023-04-24T09:48:33;10.48;;;3.63;;
63398;SDS011;49533;-34.520;150.798;2023-04-24T09:51:03;8.23;;;2.97;;
63398;SDS011;49533;-34.520;150.798;2023-04-24T09:53:32;10.15;;;2.92;;
63398;SDS011;49533;-34.520;150.798;2023-04-24T09:56:06;5.30;;;2.80;;
63398;SDS011;49533;-34.520;150.798;2023-04-24T09:58:35;7.13;;;2.67;;
63398;SDS011;49533;-34.520;150.798;2023-04-24T10:01:03;6.45;;;3.38;;
63398;SDS011;49533;-34.520;150.798;2023-04-24T10:03:31;7.05;;;3.13;;
63398;SDS011;49533;-34.520;150.798;2023-04-24T10:06:00;10.15;;;3.03;;
63398;SDS011;49533;-34.520;150.798;2023-04-24T10:08:34;5.90;;;2.60;;
63398;SDS011;49533;-34.520;150.798;2023-04-24T10:11:03;6.50;;;3.10;;
63398;SDS011;49533;-34.520;150.798;2023-04-24T10:13:30;7.28;;;3.13;;
63398;SDS011;49533;-34.520;150.798;2023-04-24T10:15:58;11.55;;;3.60;;
63398;SDS011;49533;-34.520;150.798;2023-04-24T10:18:26;6.80;;;2.58;;
63398;SDS011;49533;-34.520;150.798;2023-04-24T10:20:54;8.82;;;3.05;;
63398;SDS011;49533;-34.520;150.798;2023-04-24T10:23:22;8.35;;;3.03;;
63398;SDS011;49533;-34.520;150.798;2023-04-24T10:25:51;8.57;;;3.10;;
63398;SDS011;49533;-34.520;150.798;2023-04-24T10:28:20;7.88;;;2.83;;
63398;SDS011;49533;-34.520;150.798;2023-04-24T10:30:48;9.25;;;3.63;;
63398;SDS011;49533;-34.520;150.798;2023-04-24T10:33:17;9.32;;;3.80;;
63398;SDS011;49533;-34.520;150.798;2023-04-24T10:35:45;6.55;;;2.92;;
63398;SDS011;49533;-34.520;150.798;2023-04-24T10:38:16;6.85;;;2.90;;
63398;SDS011;49533;-34.520;150.798;2023-04-24T10:40:50;9.20;;;3.13;;
63398;SDS011;49533;-34.520;150.798;2023-04-24T10:43:17;7.75;;;3.10;;
63398;SDS011;49533;-34.520;150.798;2023-04-24T10:48:28;8.32;;;3.00;;
63398;SDS011;49533;-34.520;150.798;2023-04-24T10:50:56;6.32;;;2.90;;
63398;SDS011;49533;-34.520;150.798;2023-04-24T10:53:25;9.38;;;3.25;;
63398;SDS011;49533;-34.520;150.798;2023-04-24T10:55:57;8.25;;;3.28;;
63398;SDS011;49533;-34.520;150.798;2023-04-24T10:58:36;6.53;;;2.95;;
63398;SDS011;49533;-34.520;150.798;2023-04-24T11:01:08;8.45;;;3.13;;
63398;SDS011;49533;-34.520;150.798;2023-04-24T11:03:50;8.10;;;2.67;;
63398;SDS011;49533;-34.520;150.798;2023-04-24T11:06:28;8.00;;;3.47;;
63398;SDS011;49533;-34.520;150.798;2023-04-24T11:09:03;10.10;;;3.10;;
63398;SDS011;49533;-34.520;150.798;2023-04-24T11:11:32;6.25;;;2.80;;
63398;SDS011;49533;-34.520;150.798;2023-04-24T11:14:00;6.85;;;2.85;;
63398;SDS011;49533;-34.520;150.798;2023-04-24T11:16:30;6.88;;;3.00;;
63398;SDS011;49533;-34.520;150.798;2023-04-24T11:19:00;7.15;;;2.55;;
63398;SDS011;49533;-34.520;150.798;2023-04-24T11:21:39;7.43;;;3.03;;
63398;SDS011;49533;-34.520;150.798;2023-04-24T11:27:13;6.55;;;2.78;;
63398;SDS011;49533;-34.520;150.798;2023-04-24T11:32:30;8.93;;;3.25;;
63398;SDS011;49533;-34.520;150.798;2023-04-24T11:35:04;8.35;;;3.35;;
63398;SDS011;49533;-34.520;150.798;2023-04-24T11:37:46;9.88;;;3.33;;
63398;SDS011;49533;-34.520;150.798;2023-04-24T11:40:16;5.72;;;2.97;;
63398;SDS011;49533;-34.520;150.798;2023-04-24T11:42:50;7.72;;;2.90;;
63398;SDS011;49533;-34.520;150.798;2023-04-24T11:45:22;6.95;;;2.63;;
63398;SDS011;49533;-34.520;150.798;2023-04-24T11:47:52;8.07;;;2.90;;
63398;SDS011;49533;-34.520;150.798;2023-04-24T11:50:21;7.75;;;2.60;;
63398;SDS011;49533;-34.520;150.798;2023-04-24T11:52:51;7.28;;;3.10;;
63398;SDS011;49533;-34.520;150.798;2023-04-24T11:55:22;5.43;;;2.42;;
63398;SDS011;49533;-34.520;150.798;2023-04-24T11:57:54;5.45;;;2.75;;
63398;SDS011;49533;-34.520;150.798;2023-04-24T12:00:23;6.22;;;2.97;;
63398;SDS011;49533;-34.520;150.798;2023-04-24T12:03:03;7.55;;;3.15;;
63398;SDS011;49533;-34.520;150.798;2023-04-24T12:05:32;8.52;;;2.75;;
63398;SDS011;49533;-34.520;150.798;2023-04-24T12:08:00;5.40;;;2.60;;
63398;SDS011;49533;-34.520;150.798;2023-04-24T12:10:29;5.63;;;2.65;;
63398;SDS011;49533;-34.520;150.798;2023-04-24T12:12:57;4.80;;;2.47;;
63398;SDS011;49533;-34.520;150.798;2023-04-24T12:15:26;4.63;;;2.67;;
63398;SDS011;49533;-34.520;150.798;2023-04-24T12:17:54;4.82;;;2.38;;
63398;SDS011;49533;-34.520;150.798;2023-04-24T12:20:24;5.88;;;2.53;;
63398;SDS011;49533;-34.520;150.798;2023-04-24T12:22:54;7.60;;;2.90;;
63398;SDS011;49533;-34.520;150.798;2023-04-24T12:25:24;6.00;;;2.95;;
63398;SDS011;49533;-34.520;150.798;2023-04-24T12:27:54;6.68;;;3.00;;
63398;SDS011;49533;-34.520;150.798;2023-04-24T12:30:40;4.88;;;2.17;;
63398;SDS011;49533;-34.520;150.798;2023-04-24T12:33:10;6.32;;;2.97;;
63398;SDS011;49533;-34.520;150.798;2023-04-24T12:35:39;5.65;;;2.80;;
63398;SDS011;49533;-34.520;150.798;2023-04-24T12:38:08;5.15;;;2.35;;
63398;SDS011;49533;-34.520;150.798;2023-04-24T12:40:36;7.60;;;2.70;;
63398;SDS011;49533;-34.520;150.798;2023-04-24T12:43:12;5.03;;;2.33;;
63398;SDS011;49533;-34.520;150.798;2023-04-24T12:45:41;7.45;;;3.38;;
63398;SDS011;49533;-34.520;150.798;2023-04-24T12:48:08;4.78;;;2.35;;
63398;SDS011;49533;-34.520;150.798;2023-04-24T12:50:35;6.72;;;2.53;;
63398;SDS011;49533;-34.520;150.798;2023-04-24T12:53:03;6.03;;;2.45;;
63398;SDS011;49533;-34.520;150.798;2023-04-24T12:55:32;3.97;;;1.90;;
63398;SDS011;49533;-34.520;150.798;2023-04-24T12:58:00;5.32;;;2.38;;
63398;SDS011;49533;-34.520;150.798;2023-04-24T13:00:28;4.30;;;1.90;;
63398;SDS011;49533;-34.520;150.798;2023-04-24T13:02:55;4.45;;;1.73;;
63398;SDS011;49533;-34.520;150.798;2023-04-24T13:05:23;5.20;;;2.20;;
63398;SDS011;49533;-34.520;150.798;2023-04-24T13:07:50;6.78;;;2.50;;
63398;SDS011;49533;-34.520;150.798;2023-04-24T13:10:17;3.90;;;1.65;;
63398;SDS011;49533;-34.520;150.798;2023-04-24T13:12:44;4.25;;;2.00;;
63398;SDS011;49533;-34.520;150.798;2023-04-24T13:15:12;6.13;;;2.47;;
63398;SDS011;49533;-34.520;150.798;2023-04-24T13:17:39;5.03;;;2.30;;
63398;SDS011;49533;-34.520;150.798;2023-04-24T13:20:06;5.40;;;2.58;;
63398;SDS011;49533;-34.520;150.798;2023-04-24T13:22:33;5.88;;;2.42;;
63398;SDS011;49533;-34.520;150.798;2023-04-24T13:25:02;5.22;;;2.53;;
63398;SDS011;49533;-34.520;150.798;2023-04-24T13:27:32;5.97;;;2.40;;
63398;SDS011;49533;-34.520;150.798;2023-04-24T13:30:00;5.40;;;2.08;;
63398;SDS011;49533;-34.520;150.798;2023-04-24T13:32:27;5.70;;;2.50;;
63398;SDS011;49533;-34.520;150.798;2023-04-24T13:34:54;6.07;;;2.35;;
63398;SDS011;49533;-34.520;150.798;2023-04-24T13:37:22;4.10;;;1.90;;
63398;SDS011;49533;-34.520;150.798;2023-04-24T13:39:49;4.57;;;1.80;;
63398;SDS011;49533;-34.520;150.798;2023-04-24T13:42:16;5.95;;;2.40;;
63398;SDS011;49533;-34.520;150.798;2023-04-24T13:44:44;6.50;;;2.17;;
63398;SDS011;49533;-34.520;150.798;2023-04-24T13:47:11;6.40;;;2.50;;
63398;SDS011;49533;-34.520;150.798;2023-04-24T13:49:38;4.80;;;2.15;;
63398;SDS011;49533;-34.520;150.798;2023-04-24T13:52:05;4.38;;;2.30;;
63398;SDS011;49533;-34.520;150.798;2023-04-24T13:54:33;4.53;;;2.28;;
63398;SDS011;49533;-34.520;150.798;2023-04-24T13:57:00;6.57;;;2.53;;
63398;SDS011;49533;-34.520;150.798;2023-04-24T13:59:28;4.03;;;2.03;;
63398;SDS011;49533;-34.520;150.798;2023-04-24T14:01:56;4.47;;;2.30;;
63398;SDS011;49533;-34.520;150.798;2023-04-24T14:04:23;6.32;;;2.25;;
63398;SDS011;49533;-34.520;150.798;2023-04-24T14:06:50;4.93;;;2.05;;
63398;SDS011;49533;-34.520;150.798;2023-04-24T14:09:18;5.65;;;2.67;;
63398;SDS011;49533;-34.520;150.798;2023-04-24T14:11:45;6.93;;;2.40;;
63398;SDS011;49533;-34.520;150.798;2023-04-24T14:14:12;4.95;;;2.28;;
63398;SDS011;49533;-34.520;150.798;2023-04-24T14:16:39;4.55;;;2.20;;
63398;SDS011;49533;-34.520;150.798;2023-04-24T14:19:06;4.15;;;2.17;;
63398;SDS011;49533;-34.520;150.798;2023-04-24T14:21:34;5.45;;;2.00;;
63398;SDS011;49533;-34.520;150.798;2023-04-24T14:24:01;4.13;;;1.98;;